Antonio Roldán Betancourt Airport

Airport
ICAO code: 
SKLC
IATA Code: 
APO
Summary
ICAO Region: 
CARSAM
Territory: 
Location: 
Vijagual, Antioquia Department
Serving: 
Apartado
Elevation: 
46 ft
Coordinates: 
Aerial View: 
7° 48' 57.859" N, 76° 43' 6.602" W
Metar
Observation
SKLC 061500Z 22004KT 9999 BKN015 28/25 Q1012 RMK A2990
Station
Apartado / Los Cedros
Date/Time
2021-12-06 15:00:00
Wind direction
220°
Wind speed
04 kts
Lowest cloud amount
broken clouds
Temperature
28°C
Dew point
25°C
Humidity
83%
QNH
1012 hPa
Weather condition
n/a

Antonio Roldán Betancourt Airport is an airport serving Apartadó, a town in the Antioquia Department of Colombia. The airport is in the countryside 12km southwest of Apartadó.

Climatology

Tropical rainforest climate (Köppen climate classification Af)

Runways

Designator Length Width Surface Rops
15/33 2180 30 ASP No/No
Airport map: 
Aerial View: 

SKYbrary Partners:

Safety knowledge contributed by: